sensor_id;sensor_type;location;lat;lon;timestamp;temperature;humidity
14723;DHT22;7452;55.594;12.986;2023-02-26T00:01:12;-0.60;99.90
14723;DHT22;7452;55.594;12.986;2023-02-26T00:03:39;-0.60;99.90
14723;DHT22;7452;55.594;12.986;2023-02-26T00:06:06;-0.60;99.90
14723;DHT22;7452;55.594;12.986;2023-02-26T00:08:34;-0.60;99.90
14723;DHT22;7452;55.594;12.986;2023-02-26T00:11:05;-0.60;99.90
14723;DHT22;7452;55.594;12.986;2023-02-26T00:13:35;-0.70;99.90
14723;DHT22;7452;55.594;12.986;2023-02-26T00:16:12;-0.70;99.90
14723;DHT22;7452;55.594;12.986;2023-02-26T00:18:43;-0.70;99.90
14723;DHT22;7452;55.594;12.986;2023-02-26T00:21:15;-0.70;99.90
14723;DHT22;7452;55.594;12.986;2023-02-26T00:23:43;-0.70;99.90
14723;DHT22;7452;55.594;12.986;2023-02-26T00:26:10;-0.70;99.90
14723;DHT22;7452;55.594;12.986;2023-02-26T00:28:38;-0.70;99.90
14723;DHT22;7452;55.594;12.986;2023-02-26T00:31:09;-0.70;99.90
14723;DHT22;7452;55.594;12.986;2023-02-26T00:33:36;-0.80;99.90
14723;DHT22;7452;55.594;12.986;2023-02-26T00:36:12;-0.80;99.90
14723;DHT22;7452;55.594;12.986;2023-02-26T00:38:44;-0.80;99.90
14723;DHT22;7452;55.594;12.986;2023-02-26T00:41:14;-0.70;99.90
14723;DHT22;7452;55.594;12.986;2023-02-26T00:43:42;-0.70;99.90
14723;DHT22;7452;55.594;12.986;2023-02-26T00:46:20;-0.70;99.90
14723;DHT22;7452;55.594;12.986;2023-02-26T00:48:57;-0.70;99.90
14723;DHT22;7452;55.594;12.986;2023-02-26T00:51:29;-0.80;99.90
14723;DHT22;7452;55.594;12.986;2023-02-26T00:54:03;-0.80;99.90
14723;DHT22;7452;55.594;12.986;2023-02-26T00:56:31;-0.80;99.90
14723;DHT22;7452;55.594;12.986;2023-02-26T00:58:59;-0.80;99.90
14723;DHT22;7452;55.594;12.986;2023-02-26T01:01:28;-0.80;99.90
14723;DHT22;7452;55.594;12.986;2023-02-26T01:03:56;-0.80;99.90
14723;DHT22;7452;55.594;12.986;2023-02-26T01:06:26;-0.80;99.90
14723;DHT22;7452;55.594;12.986;2023-02-26T01:08:59;-0.80;99.90
14723;DHT22;7452;55.594;12.986;2023-02-26T01:11:32;-0.80;99.90
14723;DHT22;7452;55.594;12.986;2023-02-26T01:14:01;-0.90;99.90
14723;DHT22;7452;55.594;12.986;2023-02-26T01:16:35;-0.80;99.90
14723;DHT22;7452;55.594;12.986;2023-02-26T01:19:07;-0.90;99.90
14723;DHT22;7452;55.594;12.986;2023-02-26T01:21:42;-0.90;99.90
14723;DHT22;7452;55.594;12.986;2023-02-26T01:24:14;-0.90;99.90
14723;DHT22;7452;55.594;12.986;2023-02-26T01:26:43;-0.90;99.90
14723;DHT22;7452;55.594;12.986;2023-02-26T01:29:13;-0.90;99.90
14723;DHT22;7452;55.594;12.986;2023-02-26T01:31:49;-0.90;99.90
14723;DHT22;7452;55.594;12.986;2023-02-26T01:34:24;-0.90;99.90
14723;DHT22;7452;55.594;12.986;2023-02-26T01:36:57;-0.90;99.90
14723;DHT22;7452;55.594;12.986;2023-02-26T01:39:35;-0.90;99.90
14723;DHT22;7452;55.594;12.986;2023-02-26T01:42:10;-0.90;99.90
14723;DHT22;7452;55.594;12.986;2023-02-26T01:44:46;-0.90;99.90
14723;DHT22;7452;55.594;12.986;2023-02-26T01:47:22;-0.90;99.90
14723;DHT22;7452;55.594;12.986;2023-02-26T01:49:53;-1.00;99.90
14723;DHT22;7452;55.594;12.986;2023-02-26T01:55:31;-0.90;99.90
14723;DHT22;7452;55.594;12.986;2023-02-26T01:57:58;-1.00;99.90
14723;DHT22;7452;55.594;12.986;2023-02-26T02:00:26;-1.00;99.90
14723;DHT22;7452;55.594;12.986;2023-02-26T02:02:57;-1.00;99.90
14723;DHT22;7452;55.594;12.986;2023-02-26T02:05:27;-1.10;99.90
14723;DHT22;7452;55.594;12.986;2023-02-26T02:07:59;-1.10;99.90
14723;DHT22;7452;55.594;12.986;2023-02-26T02:10:29;-1.10;99.90
14723;DHT22;7452;55.594;12.986;2023-02-26T02:13:03;-1.10;99.90
14723;DHT22;7452;55.594;12.986;2023-02-26T02:15:39;-1.10;99.90
14723;DHT22;7452;55.594;12.986;2023-02-26T02:18:18;-1.10;99.90
14723;DHT22;7452;55.594;12.986;2023-02-26T02:20:59;-1.10;99.90
14723;DHT22;7452;55.594;12.986;2023-02-26T02:23:38;-1.10;99.90
14723;DHT22;7452;55.594;12.986;2023-02-26T02:29:32;-1.10;99.90
14723;DHT22;7452;55.594;12.986;2023-02-26T02:32:13;-1.10;99.90
14723;DHT22;7452;55.594;12.986;2023-02-26T02:34:46;-1.10;99.90
14723;DHT22;7452;55.594;12.986;2023-02-26T02:37:18;-1.10;99.90
14723;DHT22;7452;55.594;12.986;2023-02-26T02:39:49;-1.10;99.90
14723;DHT22;7452;55.594;12.986;2023-02-26T02:42:22;-1.10;99.90
14723;DHT22;7452;55.594;12.986;2023-02-26T02:44:54;-1.10;99.90
14723;DHT22;7452;55.594;12.986;2023-02-26T02:47:25;-1.10;99.90
14723;DHT22;7452;55.594;12.986;2023-02-26T02:49:58;-1.10;99.90
14723;DHT22;7452;55.594;12.986;2023-02-26T02:52:31;-1.10;99.90
14723;DHT22;7452;55.594;12.986;2023-02-26T02:55:05;-1.10;99.90
14723;DHT22;7452;55.594;12.986;2023-02-26T02:57:38;-1.10;99.90
14723;DHT22;7452;55.594;12.986;2023-02-26T03:00:09;-1.10;99.90
14723;DHT22;7452;55.594;12.986;2023-02-26T03:02:44;-1.10;99.90
14723;DHT22;7452;55.594;12.986;2023-02-26T03:05:13;-1.10;99.90
14723;DHT22;7452;55.594;12.986;2023-02-26T03:07:48;-1.10;99.90
14723;DHT22;7452;55.594;12.986;2023-02-26T03:10:17;-1.10;99.90
14723;DHT22;7452;55.594;12.986;2023-02-26T03:12:47;-1.10;99.90
14723;DHT22;7452;55.594;12.986;2023-02-26T03:15:25;-1.10;99.90
14723;DHT22;7452;55.594;12.986;2023-02-26T03:18:01;-1.10;99.90
14723;DHT22;7452;55.594;12.986;2023-02-26T03:20:35;-1.10;99.90
14723;DHT22;7452;55.594;12.986;2023-02-26T03:23:10;-1.10;99.90
14723;DHT22;7452;55.594;12.986;2023-02-26T03:25:45;-1.10;99.90
14723;DHT22;7452;55.594;12.986;2023-02-26T03:28:17;-1.20;99.90
14723;DHT22;7452;55.594;12.986;2023-02-26T03:30:49;-1.20;99.90
14723;DHT22;7452;55.594;12.986;2023-02-26T03:33:27;-1.20;99.90
14723;DHT22;7452;55.594;12.986;2023-02-26T03:35:59;-1.20;99.90
14723;DHT22;7452;55.594;12.986;2023-02-26T03:38:35;-1.20;99.90
14723;DHT22;7452;55.594;12.986;2023-02-26T03:41:09;-1.20;99.90
14723;DHT22;7452;55.594;12.986;2023-02-26T03:43:41;-1.20;99.90
14723;DHT22;7452;55.594;12.986;2023-02-26T03:46:15;-1.20;99.90
14723;DHT22;7452;55.594;12.986;2023-02-26T03:48:48;-1.20;99.90
14723;DHT22;7452;55.594;12.986;2023-02-26T03:51:19;-1.20;99.90
14723;DHT22;7452;55.594;12.986;2023-02-26T03:53:51;-1.30;99.90
14723;DHT22;7452;55.594;12.986;2023-02-26T03:56:27;-1.30;99.90
14723;DHT22;7452;55.594;12.986;2023-02-26T03:58:56;-1.30;99.90
14723;DHT22;7452;55.594;12.986;2023-02-26T04:01:28;-1.30;99.90
14723;DHT22;7452;55.594;12.986;2023-02-26T04:04:03;-1.30;99.90
14723;DHT22;7452;55.594;12.986;2023-02-26T04:06:33;-1.30;99.90
14723;DHT22;7452;55.594;12.986;2023-02-26T04:09:04;-1.30;99.90
14723;DHT22;7452;55.594;12.986;2023-02-26T04:11:33;-1.30;99.90
14723;DHT22;7452;55.594;12.986;2023-02-26T04:14:02;-1.40;99.90
14723;DHT22;7452;55.594;12.986;2023-02-26T04:16:31;-1.30;99.90
14723;DHT22;7452;55.594;12.986;2023-02-26T04:19:01;-1.40;99.90
14723;DHT22;7452;55.594;12.986;2023-02-26T04:21:34;-1.40;99.90
14723;DHT22;7452;55.594;12.986;2023-02-26T04:24:02;-1.30;99.90
14723;DHT22;7452;55.594;12.986;2023-02-26T04:26:30;-1.40;99.90
14723;DHT22;7452;55.594;12.986;2023-02-26T04:28:58;-1.40;99.90
14723;DHT22;7452;55.594;12.986;2023-02-26T04:31:26;-1.30;99.90
14723;DHT22;7452;55.594;12.986;2023-02-26T04:33:53;-1.30;99.90
14723;DHT22;7452;55.594;12.986;2023-02-26T04:36:22;-1.30;99.90
14723;DHT22;7452;55.594;12.986;2023-02-26T04:38:52;-1.30;99.90
14723;DHT22;7452;55.594;12.986;2023-02-26T04:41:22;-1.30;99.90
14723;DHT22;7452;55.594;12.986;2023-02-26T04:43:49;-1.20;99.90
14723;DHT22;7452;55.594;12.986;2023-02-26T04:46:17;-1.20;99.90
14723;DHT22;7452;55.594;12.986;2023-02-26T04:48:44;-1.20;99.90
14723;DHT22;7452;55.594;12.986;2023-02-26T04:51:11;-1.20;99.90
14723;DHT22;7452;55.594;12.986;2023-02-26T04:53:40;-1.10;99.90
14723;DHT22;7452;55.594;12.986;2023-02-26T04:56:09;-1.10;99.90
14723;DHT22;7452;55.594;12.986;2023-02-26T04:58:38;-1.10;99.90
14723;DHT22;7452;55.594;12.986;2023-02-26T05:01:07;-1.20;99.90
14723;DHT22;7452;55.594;12.986;2023-02-26T05:03:35;-1.10;99.90
14723;DHT22;7452;55.594;12.986;2023-02-26T05:06:03;-1.20;99.90
14723;DHT22;7452;55.594;12.986;2023-02-26T05:08:31;-1.20;99.90
14723;DHT22;7452;55.594;12.986;2023-02-26T05:11:02;-1.20;99.90
14723;DHT22;7452;55.594;12.986;2023-02-26T05:13:31;-1.20;99.90
14723;DHT22;7452;55.594;12.986;2023-02-26T05:15:58;-1.20;99.90
14723;DHT22;7452;55.594;12.986;2023-02-26T05:18:26;-1.20;99.90
14723;DHT22;7452;55.594;12.986;2023-02-26T05:20:54;-1.10;99.90
14723;DHT22;7452;55.594;12.986;2023-02-26T05:23:22;-1.10;99.90
14723;DHT22;7452;55.594;12.986;2023-02-26T05:25:50;-1.00;99.90
14723;DHT22;7452;55.594;12.986;2023-02-26T05:28:20;-1.00;99.90
14723;DHT22;7452;55.594;12.986;2023-02-26T05:30:49;-1.00;99.90
14723;DHT22;7452;55.594;12.986;2023-02-26T05:33:18;-1.00;99.90
14723;DHT22;7452;55.594;12.986;2023-02-26T05:35:46;-0.90;99.90
14723;DHT22;7452;55.594;12.986;2023-02-26T05:38:16;-0.90;99.90
14723;DHT22;7452;55.594;12.986;2023-02-26T05:40:45;-0.90;99.90
14723;DHT22;7452;55.594;12.986;2023-02-26T05:43:15;-0.90;99.90
14723;DHT22;7452;55.594;12.986;2023-02-26T05:45:48;-0.90;99.90
14723;DHT22;7452;55.594;12.986;2023-02-26T05:48:16;-0.90;99.90
14723;DHT22;7452;55.594;12.986;2023-02-26T05:50:47;-0.80;99.90
14723;DHT22;7452;55.594;12.986;2023-02-26T05:53:16;-0.80;99.90
14723;DHT22;7452;55.594;12.986;2023-02-26T05:55:43;-0.80;99.90
14723;DHT22;7452;55.594;12.986;2023-02-26T05:58:11;-0.80;99.90
14723;DHT22;7452;55.594;12.986;2023-02-26T06:00:41;-0.80;99.90
14723;DHT22;7452;55.594;12.986;2023-02-26T06:03:13;-0.80;99.90
14723;DHT22;7452;55.594;12.986;2023-02-26T06:05:40;-0.80;99.90
14723;DHT22;7452;55.594;12.986;2023-02-26T06:08:12;-0.70;99.90
14723;DHT22;7452;55.594;12.986;2023-02-26T06:10:43;-0.70;99.90
14723;DHT22;7452;55.594;12.986;2023-02-26T06:13:13;-0.60;99.90
14723;DHT22;7452;55.594;12.986;2023-02-26T06:15:43;-0.60;99.90
14723;DHT22;7452;55.594;12.986;2023-02-26T06:18:12;-0.60;99.90
14723;DHT22;7452;55.594;12.986;2023-02-26T06:20:40;-0.60;99.90
14723;DHT22;7452;55.594;12.986;2023-02-26T06:23:09;-0.60;99.90
14723;DHT22;7452;55.594;12.986;2023-02-26T06:25:36;-0.60;99.90
14723;DHT22;7452;55.594;12.986;2023-02-26T06:28:04;-0.50;99.90
14723;DHT22;7452;55.594;12.986;2023-02-26T06:30:31;-0.50;99.90
14723;DHT22;7452;55.594;12.986;2023-02-26T06:32:59;-0.50;99.90
14723;DHT22;7452;55.594;12.986;2023-02-26T06:35:31;-0.40;99.90
14723;DHT22;7452;55.594;12.986;2023-02-26T06:38:00;-0.50;99.90
14723;DHT22;7452;55.594;12.986;2023-02-26T06:40:38;-0.40;99.90
14723;DHT22;7452;55.594;12.986;2023-02-26T06:43:06;-0.40;99.90
14723;DHT22;7452;55.594;12.986;2023-02-26T06:45:34;-0.50;99.90
14723;DHT22;7452;55.594;12.986;2023-02-26T06:48:01;-0.40;99.90
14723;DHT22;7452;55.594;12.986;2023-02-26T06:50:30;-0.40;99.90
14723;DHT22;7452;55.594;12.986;2023-02-26T06:52:58;-0.40;99.90
14723;DHT22;7452;55.594;12.986;2023-02-26T06:55:25;-0.30;99.90
14723;DHT22;7452;55.594;12.986;2023-02-26T06:57:53;-0.20;99.90
14723;DHT22;7452;55.594;12.986;2023-02-26T07:00:21;-0.30;99.90
14723;DHT22;7452;55.594;12.986;2023-02-26T07:02:49;-0.20;99.90
14723;DHT22;7452;55.594;12.986;2023-02-26T07:05:17;-0.20;99.90
14723;DHT22;7452;55.594;12.986;2023-02-26T07:07:54;-0.20;99.90
14723;DHT22;7452;55.594;12.986;2023-02-26T07:10:24;-0.10;99.90
14723;DHT22;7452;55.594;12.986;2023-02-26T07:12:51;-0.10;99.90
14723;DHT22;7452;55.594;12.986;2023-02-26T07:15:18;-0.20;99.90
14723;DHT22;7452;55.594;12.986;2023-02-26T07:17:46;-0.10;99.90
14723;DHT22;7452;55.594;12.986;2023-02-26T07:20:16;-0.10;99.90
14723;DHT22;7452;55.594;12.986;2023-02-26T07:22:45;-0.10;99.90
14723;DHT22;7452;55.594;12.986;2023-02-26T07:25:13;-0.10;99.90
14723;DHT22;7452;55.594;12.986;2023-02-26T07:27:41;0.10;99.90
14723;DHT22;7452;55.594;12.986;2023-02-26T07:30:09;0.10;99.90
14723;DHT22;7452;55.594;12.986;2023-02-26T07:32:36;0.20;99.90
14723;DHT22;7452;55.594;12.986;2023-02-26T07:35:04;0.20;99.90
14723;DHT22;7452;55.594;12.986;2023-02-26T07:37:32;0.30;99.90
14723;DHT22;7452;55.594;12.986;2023-02-26T07:40:00;0.30;99.90
14723;DHT22;7452;55.594;12.986;2023-02-26T07:42:28;0.40;99.90
14723;DHT22;7452;55.594;12.986;2023-02-26T07:44:56;0.40;99.90
14723;DHT22;7452;55.594;12.986;2023-02-26T07:47:23;0.50;99.90
14723;DHT22;7452;55.594;12.986;2023-02-26T07:49:51;0.50;99.90
14723;DHT22;7452;55.594;12.986;2023-02-26T07:52:18;0.60;99.90
14723;DHT22;7452;55.594;12.986;2023-02-26T07:54:47;0.70;99.90
14723;DHT22;7452;55.594;12.986;2023-02-26T07:57:15;0.80;99.90
14723;DHT22;7452;55.594;12.986;2023-02-26T07:59:42;0.90;99.90
14723;DHT22;7452;55.594;12.986;2023-02-26T08:02:10;1.10;99.90
14723;DHT22;7452;55.594;12.986;2023-02-26T08:04:38;1.10;99.90
14723;DHT22;7452;55.594;12.986;2023-02-26T08:07:07;1.20;99.90
14723;DHT22;7452;55.594;12.986;2023-02-26T08:09:34;1.30;99.90
14723;DHT22;7452;55.594;12.986;2023-02-26T08:12:01;1.40;99.90
14723;DHT22;7452;55.594;12.986;2023-02-26T08:14:30;1.50;99.90
14723;DHT22;7452;55.594;12.986;2023-02-26T08:16:57;1.50;99.90
14723;DHT22;7452;55.594;12.986;2023-02-26T08:19:23;1.60;99.90
14723;DHT22;7452;55.594;12.986;2023-02-26T08:21:51;1.70;99.90
14723;DHT22;7452;55.594;12.986;2023-02-26T08:24:19;1.70;99.90
14723;DHT22;7452;55.594;12.986;2023-02-26T08:26:47;1.80;99.90
14723;DHT22;7452;55.594;12.986;2023-02-26T08:29:14;1.80;99.90
14723;DHT22;7452;55.594;12.986;2023-02-26T08:31:44;1.90;99.90
14723;DHT22;7452;55.594;12.986;2023-02-26T08:34:11;2.00;99.90
14723;DHT22;7452;55.594;12.986;2023-02-26T08:36:38;2.10;99.90
14723;DHT22;7452;55.594;12.986;2023-02-26T08:39:06;2.10;99.90
14723;DHT22;7452;55.594;12.986;2023-02-26T08:41:35;2.30;99.90
14723;DHT22;7452;55.594;12.986;2023-02-26T08:44:10;2.20;99.90
14723;DHT22;7452;55.594;12.986;2023-02-26T08:46:37;2.30;99.90
14723;DHT22;7452;55.594;12.986;2023-02-26T08:49:05;2.40;99.90
14723;DHT22;7452;55.594;12.986;2023-02-26T08:51:33;2.50;99.90
14723;DHT22;7452;55.594;12.986;2023-02-26T08:54:00;2.50;99.90
14723;DHT22;7452;55.594;12.986;2023-02-26T08:56:28;2.60;99.90
14723;DHT22;7452;55.594;12.986;2023-02-26T08:58:56;2.70;99.90
14723;DHT22;7452;55.594;12.986;2023-02-26T09:01:24;2.80;99.90
14723;DHT22;7452;55.594;12.986;2023-02-26T09:03:52;2.90;99.90
14723;DHT22;7452;55.594;12.986;2023-02-26T09:06:37;3.00;99.90
14723;DHT22;7452;55.594;12.986;2023-02-26T09:09:05;3.00;99.90
14723;DHT22;7452;55.594;12.986;2023-02-26T09:11:34;3.20;99.90
14723;DHT22;7452;55.594;12.986;2023-02-26T09:14:01;3.20;99.90
14723;DHT22;7452;55.594;12.986;2023-02-26T09:16:31;3.20;99.90
14723;DHT22;7452;55.594;12.986;2023-02-26T09:19:06;3.20;99.90
14723;DHT22;7452;55.594;12.986;2023-02-26T09:21:33;3.30;99.90
14723;DHT22;7452;55.594;12.986;2023-02-26T09:24:03;3.40;99.90
14723;DHT22;7452;55.594;12.986;2023-02-26T09:26:31;3.50;99.90
14723;DHT22;7452;55.594;12.986;2023-02-26T09:29:03;3.50;99.90
14723;DHT22;7452;55.594;12.986;2023-02-26T09:31:31;3.60;99.90
14723;DHT22;7452;55.594;12.986;2023-02-26T09:33:59;3.50;99.90
14723;DHT22;7452;55.594;12.986;2023-02-26T09:36:29;3.70;99.90
14723;DHT22;7452;55.594;12.986;2023-02-26T09:38:57;3.90;99.90
14723;DHT22;7452;55.594;12.986;2023-02-26T09:41:33;4.00;99.90
14723;DHT22;7452;55.594;12.986;2023-02-26T09:44:10;4.00;99.90
14723;DHT22;7452;55.594;12.986;2023-02-26T09:46:45;4.10;99.90
14723;DHT22;7452;55.594;12.986;2023-02-26T09:49:19;4.20;99.90
14723;DHT22;7452;55.594;12.986;2023-02-26T09:51:51;4.50;99.90
14723;DHT22;7452;55.594;12.986;2023-02-26T09:54:22;4.50;99.90
14723;DHT22;7452;55.594;12.986;2023-02-26T09:56:53;4.70;99.90
14723;DHT22;7452;55.594;12.986;2023-02-26T09:59:23;4.80;99.90
14723;DHT22;7452;55.594;12.986;2023-02-26T10:01:59;5.00;99.90
14723;DHT22;7452;55.594;12.986;2023-02-26T10:04:41;5.20;99.90
14723;DHT22;7452;55.594;12.986;2023-02-26T10:07:21;5.30;99.90
14723;DHT22;7452;55.594;12.986;2023-02-26T10:10:08;5.40;99.90
14723;DHT22;7452;55.594;12.986;2023-02-26T10:12:41;5.60;99.90
14723;DHT22;7452;55.594;12.986;2023-02-26T10:15:14;5.80;99.90
14723;DHT22;7452;55.594;12.986;2023-02-26T10:17:57;6.00;99.90
14723;DHT22;7452;55.594;12.986;2023-02-26T10:20:30;6.20;99.90
14723;DHT22;7452;55.594;12.986;2023-02-26T10:23:00;6.40;99.90
14723;DHT22;7452;55.594;12.986;2023-02-26T10:25:36;6.40;99.90
14723;DHT22;7452;55.594;12.986;2023-02-26T10:28:33;6.60;99.90
14723;DHT22;7452;55.594;12.986;2023-02-26T10:31:12;6.80;99.90
14723;DHT22;7452;55.594;12.986;2023-02-26T10:33:55;6.90;99.90
14723;DHT22;7452;55.594;12.986;2023-02-26T10:36:28;7.30;99.90
14723;DHT22;7452;55.594;12.986;2023-02-26T10:39:01;7.70;99.90
14723;DHT22;7452;55.594;12.986;2023-02-26T10:41:33;8.30;99.90
14723;DHT22;7452;55.594;12.986;2023-02-26T10:44:14;8.90;99.90
14723;DHT22;7452;55.594;12.986;2023-02-26T10:46:48;9.70;99.90
14723;DHT22;7452;55.594;12.986;2023-02-26T10:49:37;10.50;99.90
14723;DHT22;7452;55.594;12.986;2023-02-26T10:52:13;11.70;99.90
14723;DHT22;7452;55.594;12.986;2023-02-26T10:54:46;12.90;99.90
14723;DHT22;7452;55.594;12.986;2023-02-26T10:57:22;13.80;99.90
14723;DHT22;7452;55.594;12.986;2023-02-26T10:59:53;14.30;99.90
14723;DHT22;7452;55.594;12.986;2023-02-26T11:02:36;15.00;99.90
14723;DHT22;7452;55.594;12.986;2023-02-26T11:05:07;15.60;99.90
14723;DHT22;7452;55.594;12.986;2023-02-26T11:07:41;15.90;99.90
14723;DHT22;7452;55.594;12.986;2023-02-26T11:10:14;16.30;99.90
14723;DHT22;7452;55.594;12.986;2023-02-26T11:12:45;16.40;99.90
14723;DHT22;7452;55.594;12.986;2023-02-26T11:15:17;16.40;99.90
14723;DHT22;7452;55.594;12.986;2023-02-26T11:17:45;16.30;99.90
14723;DHT22;7452;55.594;12.986;2023-02-26T11:20:18;16.40;99.90
14723;DHT22;7452;55.594;12.986;2023-02-26T11:22:48;16.80;99.90
14723;DHT22;7452;55.594;12.986;2023-02-26T11:25:22;17.00;99.90
14723;DHT22;7452;55.594;12.986;2023-02-26T11:27:52;17.60;99.90
14723;DHT22;7452;55.594;12.986;2023-02-26T11:30:26;17.60;99.90
14723;DHT22;7452;55.594;12.986;2023-02-26T11:32:57;18.00;99.90
14723;DHT22;7452;55.594;12.986;2023-02-26T11:35:27;18.00;99.90
14723;DHT22;7452;55.594;12.986;2023-02-26T11:37:57;17.80;99.90
14723;DHT22;7452;55.594;12.986;2023-02-26T11:40:33;17.40;99.90
14723;DHT22;7452;55.594;12.986;2023-02-26T11:43:05;17.20;99.90
14723;DHT22;7452;55.594;12.986;2023-02-26T11:45:39;17.00;99.90
14723;DHT22;7452;55.594;12.986;2023-02-26T11:48:12;17.20;99.90
14723;DHT22;7452;55.594;12.986;2023-02-26T11:50:42;17.30;99.90
14723;DHT22;7452;55.594;12.986;2023-02-26T11:53:17;17.10;99.90
14723;DHT22;7452;55.594;12.986;2023-02-26T11:55:45;17.10;99.90
14723;DHT22;7452;55.594;12.986;2023-02-26T11:58:18;17.20;99.90
14723;DHT22;7452;55.594;12.986;2023-02-26T12:00:52;17.20;99.90
14723;DHT22;7452;55.594;12.986;2023-02-26T12:03:26;17.40;99.90
14723;DHT22;7452;55.594;12.986;2023-02-26T12:05:53;17.30;99.90
14723;DHT22;7452;55.594;12.986;2023-02-26T12:08:24;17.60;99.90
14723;DHT22;7452;55.594;12.986;2023-02-26T12:11:02;18.10;99.90
14723;DHT22;7452;55.594;12.986;2023-02-26T12:13:39;18.30;99.90
14723;DHT22;7452;55.594;12.986;2023-02-26T12:16:16;18.40;99.90
14723;DHT22;7452;55.594;12.986;2023-02-26T12:19:03;18.70;99.90
14723;DHT22;7452;55.594;12.986;2023-02-26T12:27:45;19.30;99.90
14723;DHT22;7452;55.594;12.986;2023-02-26T12:30:32;19.20;99.90
14723;DHT22;7452;55.594;12.986;2023-02-26T12:33:13;19.00;99.90
14723;DHT22;7452;55.594;12.986;2023-02-26T12:35:55;19.10;99.90
14723;DHT22;7452;55.594;12.986;2023-02-26T12:38:29;19.10;99.90
14723;DHT22;7452;55.594;12.986;2023-02-26T12:41:27;19.40;99.90
14723;DHT22;7452;55.594;12.986;2023-02-26T12:44:04;19.60;99.90
14723;DHT22;7452;55.594;12.986;2023-02-26T12:46:48;19.70;99.00
14723;DHT22;7452;55.594;12.986;2023-02-26T12:49:34;19.70;98.70
14723;DHT22;7452;55.594;12.986;2023-02-26T12:52:23;19.80;99.80
14723;DHT22;7452;55.594;12.986;2023-02-26T12:55:08;20.20;98.20
14723;DHT22;7452;55.594;12.986;2023-02-26T13:07:02;19.00;99.50
14723;DHT22;7452;55.594;12.986;2023-02-26T13:09:45;18.30;98.90
14723;DHT22;7452;55.594;12.986;2023-02-26T13:12:30;17.70;99.50
14723;DHT22;7452;55.594;12.986;2023-02-26T13:15:14;17.30;99.90
14723;DHT22;7452;55.594;12.986;2023-02-26T13:17:49;16.90;99.90
14723;DHT22;7452;55.594;12.986;2023-02-26T13:20:23;16.90;99.90
14723;DHT22;7452;55.594;12.986;2023-02-26T13:22:56;17.00;99.90
14723;DHT22;7452;55.594;12.986;2023-02-26T13:25:34;17.10;99.90
14723;DHT22;7452;55.594;12.986;2023-02-26T13:28:09;17.30;99.90
14723;DHT22;7452;55.594;12.986;2023-02-26T13:30:43;17.50;99.90
14723;DHT22;7452;55.594;12.986;2023-02-26T13:33:17;18.30;99.90
14723;DHT22;7452;55.594;12.986;2023-02-26T13:35:48;18.80;99.90
14723;DHT22;7452;55.594;12.986;2023-02-26T13:38:25;19.40;99.90
14723;DHT22;7452;55.594;12.986;2023-02-26T13:41:04;19.60;99.90
14723;DHT22;7452;55.594;12.986;2023-02-26T13:43:50;19.80;99.90
14723;DHT22;7452;55.594;12.986;2023-02-26T13:46:38;19.90;99.90
14723;DHT22;7452;55.594;12.986;2023-02-26T13:49:13;20.20;99.90
14723;DHT22;7452;55.594;12.986;2023-02-26T13:51:45;20.60;99.90
14723;DHT22;7452;55.594;12.986;2023-02-26T13:54:41;20.60;99.90
14723;DHT22;7452;55.594;12.986;2023-02-26T13:57:24;20.40;99.90
14723;DHT22;7452;55.594;12.986;2023-02-26T14:00:00;20.40;99.80
14723;DHT22;7452;55.594;12.986;2023-02-26T14:02:45;20.00;98.80
14723;DHT22;7452;55.594;12.986;2023-02-26T14:05:51;19.70;99.20
14723;DHT22;7452;55.594;12.986;2023-02-26T14:08:42;19.20;98.50
14723;DHT22;7452;55.594;12.986;2023-02-26T14:14:22;18.20;99.00
14723;DHT22;7452;55.594;12.986;2023-02-26T14:16:53;18.00;99.90
14723;DHT22;7452;55.594;12.986;2023-02-26T14:19:25;18.10;99.90
14723;DHT22;7452;55.594;12.986;2023-02-26T14:21:56;17.70;99.90
14723;DHT22;7452;55.594;12.986;2023-02-26T14:24:30;17.70;99.90
14723;DHT22;7452;55.594;12.986;2023-02-26T14:27:22;17.70;99.90
14723;DHT22;7452;55.594;12.986;2023-02-26T14:30:02;17.20;99.90
14723;DHT22;7452;55.594;12.986;2023-02-26T14:32:45;16.60;99.90
14723;DHT22;7452;55.594;12.986;2023-02-26T14:35:15;15.80;99.90
14723;DHT22;7452;55.594;12.986;2023-02-26T14:38:01;15.20;99.90
14723;DHT22;7452;55.594;12.986;2023-02-26T14:40:31;14.70;99.90
14723;DHT22;7452;55.594;12.986;2023-02-26T14:43:04;14.50;99.90
14723;DHT22;7452;55.594;12.986;2023-02-26T14:45:37;14.60;99.90
14723;DHT22;7452;55.594;12.986;2023-02-26T14:48:12;14.40;99.90
14723;DHT22;7452;55.594;12.986;2023-02-26T14:50:53;14.00;99.90
14723;DHT22;7452;55.594;12.986;2023-02-26T14:53:57;13.80;99.90
14723;DHT22;7452;55.594;12.986;2023-02-26T14:56:34;13.80;99.90
14723;DHT22;7452;55.594;12.986;2023-02-26T14:59:24;13.80;99.90
14723;DHT22;7452;55.594;12.986;2023-02-26T15:02:04;13.20;99.90
14723;DHT22;7452;55.594;12.986;2023-02-26T15:07:40;13.10;99.90
14723;DHT22;7452;55.594;12.986;2023-02-26T15:10:19;12.70;99.90
14723;DHT22;7452;55.594;12.986;2023-02-26T15:15:52;12.60;99.90
14723;DHT22;7452;55.594;12.986;2023-02-26T15:18:44;12.20;99.90
14723;DHT22;7452;55.594;12.986;2023-02-26T15:21:24;11.90;99.90
14723;DHT22;7452;55.594;12.986;2023-02-26T15:24:01;11.40;99.90
14723;DHT22;7452;55.594;12.986;2023-02-26T15:26:35;11.20;99.90
14723;DHT22;7452;55.594;12.986;2023-02-26T15:29:13;10.80;99.90
14723;DHT22;7452;55.594;12.986;2023-02-26T15:31:52;10.30;99.90
14723;DHT22;7452;55.594;12.986;2023-02-26T15:34:21;9.90;99.90
14723;DHT22;7452;55.594;12.986;2023-02-26T15:36:50;9.40;99.90
14723;DHT22;7452;55.594;12.986;2023-02-26T15:39:23;9.00;99.90
14723;DHT22;7452;55.594;12.986;2023-02-26T15:41:54;8.70;99.90
14723;DHT22;7452;55.594;12.986;2023-02-26T15:44:26;8.40;99.90
14723;DHT22;7452;55.594;12.986;2023-02-26T15:47:01;8.10;99.90
14723;DHT22;7452;55.594;12.986;2023-02-26T15:49:33;7.70;99.90
14723;DHT22;7452;55.594;12.986;2023-02-26T15:52:07;7.40;99.90
14723;DHT22;7452;55.594;12.986;2023-02-26T15:54:43;7.10;99.90
14723;DHT22;7452;55.594;12.986;2023-02-26T15:57:11;6.80;99.90
14723;DHT22;7452;55.594;12.986;2023-02-26T15:59:42;6.60;99.90
14723;DHT22;7452;55.594;12.986;2023-02-26T16:02:15;6.40;99.90
14723;DHT22;7452;55.594;12.986;2023-02-26T16:04:45;6.20;99.90
14723;DHT22;7452;55.594;12.986;2023-02-26T16:07:13;6.00;99.90
14723;DHT22;7452;55.594;12.986;2023-02-26T16:09:43;5.80;99.90
14723;DHT22;7452;55.594;12.986;2023-02-26T16:12:15;5.70;99.90
14723;DHT22;7452;55.594;12.986;2023-02-26T16:14:47;5.60;99.90
14723;DHT22;7452;55.594;12.986;2023-02-26T16:17:23;5.50;99.90
14723;DHT22;7452;55.594;12.986;2023-02-26T16:19:54;5.40;99.90
14723;DHT22;7452;55.594;12.986;2023-02-26T16:22:28;5.30;99.90
14723;DHT22;7452;55.594;12.986;2023-02-26T16:24:59;5.20;99.90
14723;DHT22;7452;55.594;12.986;2023-02-26T16:27:28;5.10;99.90
14723;DHT22;7452;55.594;12.986;2023-02-26T16:29:58;5.00;99.90
14723;DHT22;7452;55.594;12.986;2023-02-26T16:32:34;5.00;99.90
14723;DHT22;7452;55.594;12.986;2023-02-26T16:35:09;4.90;99.90
14723;DHT22;7452;55.594;12.986;2023-02-26T16:37:47;4.80;99.90
14723;DHT22;7452;55.594;12.986;2023-02-26T16:40:25;4.80;99.90